»·PEaware :: N618DH KSNA-KAVX

N618DH :: KSNA-KAVX

FLIGHT INFORMATION

Flight Status: Arrived
Operator: Privately registered:
United States
More flights under this callsign
Pilot: Anonymous 18412 (18412)
Aircraft: CESSNA 172 SKYHAWK
(C172)
More flights by this aircraft type
Origin: KSNA John Wayne-Orange Co
United States
Destination: KAVX Catalina
United States
More flights between these airports :: More routes between these airports
Route: +SLI V21 SXC
File this flight plan on PilotEdge
Remarks: I-7 / FULL GPS-B
Altitude:
(Current/Filed)
6,000ft
Speed:
(Current/Filed)
100kts
Departed: 20-Jan-20 03:16 PM
Arrived: 20-Jan-20 03:54 PM
Distance/Time
Traveled:
32nm/0:37
Distance/Time
To Go:
Arrived

Flight Plot

Page will automatically refresh every two minutes.


Map Options




Map Legend


Flown Route
Filed Route
Departure Airport
Arrival Airport
Navaid (VOR, NDB)
Fix

Horizontal Profiles

Position Reports

Time Latitude Longitude Heading Altitude Ground
Speed
20-Jan-20 14:58 33.676080 -117.870909 219 60ft 0kts
20-Jan-20 15:00 33.676080 -117.870909 219 60ft 0kts
20-Jan-20 15:01 33.676080 -117.870909 219 60ft 0kts
20-Jan-20 15:01 33.676080 -117.870909 219 60ft 0kts
20-Jan-20 15:02 33.676080 -117.870909 219 60ft 0kts
20-Jan-20 15:03 33.676080 -117.870909 219 60ft 0kts
20-Jan-20 15:04 33.676080 -117.870909 219 60ft 0kts
20-Jan-20 15:05 33.676080 -117.870909 219 60ft 0kts
20-Jan-20 15:06 33.676080 -117.870909 219 60ft 0kts
20-Jan-20 15:07 33.676080 -117.870909 219 60ft 0kts
20-Jan-20 15:08 33.676080 -117.870909 219 60ft 0kts
20-Jan-20 15:09 33.676080 -117.870909 219 60ft 0kts
20-Jan-20 15:10 33.676080 -117.870909 219 60ft 0kts
20-Jan-20 15:11 33.675851 -117.870698 117 60ft 2kts
20-Jan-20 15:12 33.679506 -117.868000 11 60ft 23kts
20-Jan-20 15:13 33.681219 -117.866433 119 60ft 0kts
20-Jan-20 15:14 33.681219 -117.866433 119 60ft 0kts
20-Jan-20 15:15 33.677851 -117.867466 208 69ft 69kts
20-Jan-20 15:16 33.663488 -117.883322 232 1156ft 70kts
20-Jan-20 15:17 33.651710 -117.902367 231 2043ft 83kts
20-Jan-20 15:18 33.635372 -117.927133 232 2035ft 98kts
20-Jan-20 15:19 33.618692 -117.953721 232 2014ft 98kts
20-Jan-20 15:20 33.602030 -117.979342 232 2019ft 96kts
20-Jan-20 15:21 33.585370 -118.004473 230 2042ft 94kts
20-Jan-20 15:22 33.570328 -118.030651 236 2121ft 95kts
20-Jan-20 15:23 33.558520 -118.057103 236 2984ft 95kts
20-Jan-20 15:24 33.544360 -118.082085 232 3813ft 90kts
20-Jan-20 15:25 33.530593 -118.111741 237 4025ft 110kts
20-Jan-20 15:26 33.514246 -118.143086 236 4056ft 109kts
20-Jan-20 15:27 33.498726 -118.174959 234 4076ft 110kts
20-Jan-20 15:28 33.482315 -118.206799 234 4047ft 112kts
20-Jan-20 15:29 33.466052 -118.239313 238 4002ft 113kts
20-Jan-20 15:30 33.450055 -118.271752 236 3725ft 120kts
20-Jan-20 15:31 33.433509 -118.304167 236 3505ft 107kts
20-Jan-20 15:32 33.418339 -118.334844 236 3499ft 104kts
20-Jan-20 15:33 33.403711 -118.363568 231 3581ft 99kts
20-Jan-20 15:34 33.389840 -118.390314 234 3541ft 86kts
20-Jan-20 15:35 33.382022 -118.417534 300 3531ft 103kts
20-Jan-20 15:36 33.410171 -118.414808 8 3526ft 106kts
20-Jan-20 15:37 33.439192 -118.410117 3 3550ft 101kts
20-Jan-20 15:38 33.468168 -118.406743 3 3591ft 106kts
20-Jan-20 15:39 33.497904 -118.404099 357 3474ft 106kts
20-Jan-20 15:40 33.527785 -118.402713 342 3518ft 101kts
20-Jan-20 15:41 33.551888 -118.420834 311 3505ft 101kts
20-Jan-20 15:42 33.572793 -118.443264 313 3552ft 105kts
20-Jan-20 15:43 33.596136 -118.468806 323 3477ft 111kts
20-Jan-20 15:44 33.607262 -118.450063 149 3524ft 95kts
20-Jan-20 15:45 33.586296 -118.428234 145 3510ft 101kts
20-Jan-20 15:46 33.565879 -118.405562 143 3384ft 100kts
20-Jan-20 15:47 33.541487 -118.394259 191 2747ft 96kts
20-Jan-20 15:48 33.516309 -118.399157 194 2390ft 85kts
20-Jan-20 15:49 33.491620 -118.402550 191 2453ft 102kts
20-Jan-20 15:50 33.463297 -118.407298 184 2386ft 101kts
20-Jan-20 15:51 33.436706 -118.411252 197 2239ft 92kts
20-Jan-20 15:52 33.416134 -118.404054 157 1971ft 57kts
20-Jan-20 15:53 33.405072 -118.415212 146 1544ft 6kts
20-Jan-20 15:54 33.404805 -118.415056 157 1543ft 0kts

Navigation Log

Ident Type
Flight plan parsing failed, navigation log unavailable